Terminal Aerodrome Forecast
Issued by NWS

Home | Current Version | Previous Version | Text Only | Print | Product List | Glossary On
Versions: 1 2 3 4 5 6 7 8 9 10 11 12 13 14
000
FTUS41 KPBZ 261121
TAFDUJ
TAF
KDUJ 261121Z 2612/2712 20008G16KT P6SM BKN080
     FM262000 22009KT P6SM VCSH BKN040
     FM270300 18007KT P6SM BKN080=

USA.gov is the U.S. government's official web portal to all federal, state and local government web resources and services.